createdAt,value
2023-04-16T00:02:46.439Z,5.18
2023-04-16T00:05:49.800Z,4.85
2023-04-16T00:08:54.319Z,4.75
2023-04-16T00:11:57.666Z,5.30
2023-04-16T00:15:00.733Z,4.85
2023-04-16T00:18:04.036Z,5.18
2023-04-16T00:21:08.017Z,4.80
2023-04-16T00:24:12.454Z,4.88
2023-04-16T00:27:16.000Z,4.78
2023-04-16T00:30:19.126Z,5.88
2023-04-16T00:33:22.545Z,5.90
2023-04-16T00:36:27.031Z,5.97
2023-04-16T00:39:31.531Z,3.00
2023-04-16T00:42:34.911Z,5.25
2023-04-16T00:45:38.284Z,5.10
2023-04-16T00:48:42.026Z,5.25
2023-04-16T00:51:45.529Z,4.38
2023-04-16T00:54:50.257Z,5.13
2023-04-16T00:57:53.391Z,5.13
2023-04-16T01:00:56.924Z,5.28
2023-04-16T01:04:00.303Z,4.95
2023-04-16T01:07:03.728Z,5.30
2023-04-16T01:10:09.175Z,5.20
2023-04-16T01:13:12.685Z,5.20
2023-04-16T01:16:15.858Z,4.82
2023-04-16T01:19:19.023Z,4.28
2023-04-16T01:22:23.684Z,5.32
2023-04-16T01:25:33.651Z,5.72
2023-04-16T01:28:37.079Z,5.28
2023-04-16T01:31:40.429Z,5.85
2023-04-16T01:34:52.354Z,5.10
2023-04-16T01:37:56.980Z,4.50
2023-04-16T01:41:01.838Z,5.15
2023-04-16T01:44:05.790Z,5.63
2023-04-16T01:47:09.521Z,5.35
2023-04-16T01:50:12.816Z,5.18
2023-04-16T01:53:17.338Z,4.38
2023-04-16T01:56:20.569Z,5.90
2023-04-16T01:59:23.781Z,4.70
2023-04-16T02:02:29.094Z,5.25
2023-04-16T02:05:32.407Z,5.45
2023-04-16T02:08:37.273Z,5.22
2023-04-16T02:11:40.523Z,5.60
2023-04-16T02:14:44.054Z,4.65
2023-04-16T02:17:53.850Z,4.75
2023-04-16T02:20:59.719Z,5.32
2023-04-16T02:24:04.510Z,6.15
2023-04-16T02:27:07.920Z,5.22
2023-04-16T02:30:12.452Z,5.55
2023-04-16T02:33:16.482Z,5.60
2023-04-16T02:36:31.746Z,4.97
2023-04-16T02:39:36.766Z,4.93
2023-04-16T02:42:39.939Z,5.20
2023-04-16T02:45:44.782Z,4.75
2023-04-16T02:48:48.058Z,4.72
2023-04-16T02:51:51.224Z,5.45
2023-04-16T02:54:55.706Z,5.00
2023-04-16T02:57:58.953Z,5.38
2023-04-16T03:01:02.277Z,5.60
2023-04-16T03:04:05.977Z,4.60
2023-04-16T03:07:11.123Z,5.40
2023-04-16T03:10:15.775Z,5.47
2023-04-16T03:13:18.935Z,5.60
2023-04-16T03:16:22.427Z,5.07
2023-04-16T03:19:25.806Z,4.55
2023-04-16T03:22:28.962Z,4.32
2023-04-16T03:25:35.490Z,4.93
2023-04-16T03:28:39.052Z,5.28
2023-04-16T03:34:57.323Z,6.25
2023-04-16T03:38:00.985Z,5.60
2023-04-16T03:41:05.059Z,4.93
2023-04-16T03:44:12.089Z,5.35
2023-04-16T03:47:15.462Z,5.20
2023-04-16T03:50:20.408Z,4.78
2023-04-16T03:53:24.353Z,4.82
2023-04-16T03:56:27.596Z,5.55
2023-04-16T03:59:30.959Z,5.30
2023-04-16T04:02:34.907Z,5.18
2023-04-16T04:05:40.986Z,5.80
2023-04-16T04:11:51.429Z,5.88
2023-04-16T04:14:54.694Z,4.97
2023-04-16T04:17:58.075Z,5.43
2023-04-16T04:21:06.371Z,5.30
2023-04-16T04:24:10.695Z,5.32
2023-04-16T04:27:13.859Z,5.18
2023-04-16T04:30:17.004Z,5.75
2023-04-16T04:33:20.868Z,6.55
2023-04-16T04:36:27.219Z,6.60
2023-04-16T04:39:31.061Z,5.68
2023-04-16T04:42:34.312Z,5.05
2023-04-16T04:45:38.070Z,4.28
2023-04-16T04:48:42.125Z,5.28
2023-04-16T04:51:46.814Z,4.82
2023-04-16T04:54:49.925Z,5.13
2023-04-16T04:57:53.065Z,5.30
2023-04-16T05:00:56.803Z,4.78
2023-04-16T05:03:59.947Z,5.30
2023-04-16T05:07:04.748Z,4.60
2023-04-16T05:10:09.423Z,5.47
2023-04-16T05:13:12.796Z,5.70
2023-04-16T05:16:16.149Z,6.07
2023-04-16T05:19:19.344Z,5.72
2023-04-16T05:22:24.102Z,5.28
2023-04-16T05:25:34.326Z,5.40
2023-04-16T05:28:37.491Z,4.47
2023-04-16T05:31:40.970Z,5.13
2023-04-16T05:34:44.070Z,5.82
2023-04-16T05:37:48.625Z,5.80
2023-04-16T05:40:51.758Z,5.07
2023-04-16T05:43:54.917Z,5.50
2023-04-16T05:46:58.144Z,5.97
2023-04-16T05:50:01.277Z,5.43
2023-04-16T05:53:08.178Z,4.85
2023-04-16T05:56:11.446Z,5.63
2023-04-16T05:59:14.530Z,5.15
2023-04-16T06:02:17.759Z,4.97
2023-04-16T06:05:21.189Z,5.38
2023-04-16T06:08:25.819Z,5.13
2023-04-16T06:11:30.851Z,4.00
2023-04-16T06:14:34.032Z,5.72
2023-04-16T06:17:37.255Z,4.80
2023-04-16T06:20:40.714Z,4.68
2023-04-16T06:23:45.186Z,4.35
2023-04-16T06:26:48.334Z,5.15
2023-04-16T06:29:51.747Z,5.40
2023-04-16T06:32:55.086Z,4.70
2023-04-16T06:35:58.296Z,5.30
2023-04-16T06:39:02.827Z,4.85
2023-04-16T06:42:06.220Z,4.75
2023-04-16T06:45:10.292Z,5.22
2023-04-16T06:48:13.510Z,4.43
2023-04-16T06:51:17.013Z,5.28
2023-04-16T06:54:21.504Z,4.40
2023-04-16T06:57:24.642Z,3.83
2023-04-16T07:00:28.005Z,4.03
2023-04-16T07:03:32.546Z,4.45
2023-04-16T07:06:35.841Z,4.28
2023-04-16T07:09:40.668Z,4.65
2023-04-16T07:12:43.897Z,4.38
2023-04-16T07:15:47.155Z,4.35
2023-04-16T07:18:50.431Z,4.63
2023-04-16T07:21:53.569Z,4.38
2023-04-16T07:24:58.028Z,4.82
2023-04-16T07:28:01.345Z,4.97
2023-04-16T07:31:04.950Z,4.55
2023-04-16T07:34:08.083Z,3.70
2023-04-16T07:37:11.292Z,4.15
2023-04-16T07:40:16.220Z,5.18
2023-04-16T07:43:19.379Z,4.40
2023-04-16T07:46:22.794Z,4.20
2023-04-16T07:49:25.913Z,3.95
2023-04-16T07:52:29.093Z,5.45
2023-04-16T07:55:35.649Z,4.30
2023-04-16T07:58:38.760Z,3.10
2023-04-16T08:01:42.708Z,3.88
2023-04-16T08:04:46.110Z,3.13
2023-04-16T08:07:49.327Z,3.30
2023-04-16T08:10:55.926Z,3.38
2023-04-16T08:13:59.196Z,7.50
2023-04-16T08:17:02.353Z,3.80
2023-04-16T08:20:06.496Z,3.75
2023-04-16T08:23:09.749Z,3.15
2023-04-16T08:26:14.303Z,3.20
2023-04-16T08:29:17.689Z,3.13
2023-04-16T08:32:20.960Z,3.00
2023-04-16T08:35:24.197Z,3.25
2023-04-16T08:38:27.481Z,2.47
2023-04-16T08:41:33.792Z,2.70
2023-04-16T08:44:42.751Z,2.53
2023-04-16T08:47:48.026Z,2.67
2023-04-16T08:50:53.757Z,3.83
2023-04-16T08:54:03.787Z,2.55
2023-04-16T08:57:11.778Z,2.45
2023-04-16T09:03:19.690Z,2.15
2023-04-16T09:06:23.591Z,1.98
2023-04-16T09:09:27.324Z,1.85
2023-04-16T09:12:32.721Z,1.70
2023-04-16T09:15:36.665Z,2.38
2023-04-16T09:18:40.488Z,1.83
2023-04-16T09:21:46.551Z,2.15
2023-04-16T09:24:49.639Z,3.33
2023-04-16T09:27:54.109Z,1.80
2023-04-16T09:34:58.766Z,1.55
2023-04-16T09:38:01.924Z,2.42
2023-04-16T09:41:08.924Z,1.70
2023-04-16T09:44:12.077Z,1.67
2023-04-16T09:47:15.394Z,1.65
2023-04-16T09:50:21.280Z,1.85
2023-04-16T09:53:26.361Z,2.20
2023-04-16T09:56:30.393Z,2.50
2023-04-16T09:59:36.468Z,1.52
2023-04-16T10:02:42.821Z,2.53
2023-04-16T10:05:47.638Z,1.92
2023-04-16T10:08:51.702Z,2.22
2023-04-16T10:11:54.885Z,1.90
2023-04-16T10:14:58.113Z,2.28
2023-04-16T10:18:01.503Z,2.50
2023-04-16T10:21:06.546Z,2.22
2023-04-16T10:24:10.417Z,2.25
2023-04-16T10:27:13.725Z,1.77
2023-04-16T10:30:18.688Z,2.30
2023-04-16T10:33:23.119Z,3.47
2023-04-16T10:36:27.670Z,2.90
2023-04-16T10:39:30.985Z,4.00
2023-04-16T10:42:34.562Z,3.45
2023-04-16T10:45:39.272Z,3.92
2023-04-16T10:48:49.852Z,3.97
2023-04-16T10:51:56.671Z,4.95
2023-04-16T10:55:00.855Z,3.45
2023-04-16T10:58:04.029Z,4.03
2023-04-16T11:01:14.519Z,4.63
2023-04-16T11:04:46.033Z,3.67
2023-04-16T11:07:50.677Z,3.67
2023-04-16T11:10:54.768Z,4.18
2023-04-16T11:13:58.032Z,5.90
2023-04-16T11:17:04.361Z,7.18
2023-04-16T11:20:19.301Z,5.53
2023-04-16T11:23:24.235Z,5.72
2023-04-16T11:26:29.429Z,5.20
2023-04-16T11:29:32.617Z,5.47
2023-04-16T11:32:37.263Z,4.97
2023-04-16T11:35:43.278Z,4.70
2023-04-16T11:38:48.215Z,3.67
2023-04-16T11:41:52.739Z,4.18
2023-04-16T11:44:57.149Z,3.88
2023-04-16T11:48:00.524Z,3.20
2023-04-16T11:51:03.683Z,2.20
2023-04-16T11:54:11.145Z,3.97
2023-04-16T11:57:15.221Z,3.50
2023-04-16T12:00:19.036Z,3.05
2023-04-16T12:03:39.470Z,3.38
2023-04-16T12:07:05.046Z,3.13
2023-04-16T12:10:11.246Z,2.78
2023-04-16T12:13:16.440Z,3.00
2023-04-16T12:16:21.589Z,3.38
2023-04-16T12:19:24.893Z,3.70
2023-04-16T12:22:29.651Z,2.53
2023-04-16T12:25:35.344Z,2.47
2023-04-16T12:28:40.225Z,2.40
2023-04-16T12:31:43.727Z,2.05
2023-04-16T12:34:51.548Z,1.88
2023-04-16T12:37:54.752Z,1.63
2023-04-16T12:41:02.165Z,1.50
2023-04-16T12:44:08.960Z,1.55
2023-04-16T12:47:12.474Z,1.58
2023-04-16T12:50:15.615Z,1.60
2023-04-16T12:53:18.883Z,2.00
2023-04-16T12:56:23.466Z,2.00
2023-04-16T12:59:26.641Z,1.48
2023-04-16T13:02:30.133Z,1.92
2023-04-16T13:05:33.553Z,1.40
2023-04-16T13:08:37.458Z,1.63
2023-04-16T13:11:41.936Z,2.60
2023-04-16T13:14:45.419Z,2.72
2023-04-16T13:17:48.607Z,2.67
2023-04-16T13:20:51.994Z,1.50
2023-04-16T13:23:55.210Z,2.22
2023-04-16T13:26:59.797Z,1.55
2023-04-16T13:30:02.956Z,1.63
2023-04-16T13:33:06.240Z,1.80
2023-04-16T13:36:09.542Z,1.38
2023-04-16T13:39:12.733Z,1.15
2023-04-16T13:42:17.521Z,1.35
2023-04-16T13:45:21.293Z,1.02
2023-04-16T13:48:24.513Z,1.50
2023-04-16T13:51:28.078Z,1.45
2023-04-16T13:54:31.707Z,1.00
2023-04-16T13:57:36.340Z,1.27
2023-04-16T14:00:39.500Z,1.55
2023-04-16T14:03:43.254Z,1.23
2023-04-16T14:06:46.507Z,1.55
2023-04-16T14:09:49.610Z,0.90
2023-04-16T14:12:54.128Z,1.33
2023-04-16T14:15:57.295Z,0.90
2023-04-16T14:19:00.493Z,1.20
2023-04-16T14:22:03.753Z,1.20
2023-04-16T14:25:07.878Z,0.80
2023-04-16T14:28:15.514Z,1.00
2023-04-16T14:31:20.058Z,1.20
2023-04-16T14:34:23.265Z,0.98
2023-04-16T14:37:26.573Z,0.73
2023-04-16T14:40:33.750Z,0.77
2023-04-16T14:43:40.456Z,0.82
2023-04-16T14:46:43.776Z,0.88
2023-04-16T14:49:46.920Z,0.90
2023-04-16T14:52:50.124Z,1.50
2023-04-16T14:55:53.504Z,1.55
2023-04-16T14:58:58.050Z,2.10
2023-04-16T15:02:01.357Z,1.60
2023-04-16T15:05:04.780Z,1.63
2023-04-16T15:08:07.935Z,1.42
2023-04-16T15:11:11.596Z,1.40
2023-04-16T15:14:16.822Z,1.10
2023-04-16T15:17:22.226Z,1.63
2023-04-16T15:20:25.852Z,1.38
2023-04-16T15:23:29.719Z,1.48
2023-04-16T15:26:32.869Z,1.77
2023-04-16T15:29:37.531Z,1.83
2023-04-16T15:34:57.085Z,1.15
2023-04-16T15:38:00.554Z,1.00
2023-04-16T15:41:03.719Z,1.27
2023-04-16T15:44:07.238Z,1.30
2023-04-16T15:47:10.379Z,1.27
2023-04-16T15:50:14.839Z,1.33
2023-04-16T15:53:18.137Z,1.20
2023-04-16T15:56:21.338Z,1.10
2023-04-16T15:59:24.685Z,1.15
2023-04-16T16:02:29.781Z,0.90
2023-04-16T16:05:34.641Z,0.98
2023-04-16T16:08:38.360Z,1.13
2023-04-16T16:11:42.271Z,0.90
2023-04-16T16:14:45.413Z,0.82
2023-04-16T16:17:48.588Z,1.38
2023-04-16T16:20:57.994Z,1.75
2023-04-16T16:24:01.180Z,2.22
2023-04-16T16:27:04.907Z,1.40
2023-04-16T16:30:11.161Z,1.27
2023-04-16T16:33:15.022Z,2.70
2023-04-16T16:36:20.024Z,1.33
2023-04-16T16:39:25.200Z,1.23
2023-04-16T16:42:28.485Z,1.45
2023-04-16T16:45:31.760Z,1.08
2023-04-16T16:48:34.881Z,1.23
2023-04-16T16:51:39.397Z,1.40
2023-04-16T16:54:43.165Z,1.48
2023-04-16T16:57:46.345Z,2.28
2023-04-16T17:00:49.785Z,2.78
2023-04-16T17:03:53.250Z,1.67
2023-04-16T17:06:57.970Z,1.33
2023-04-16T17:10:03.729Z,1.60
2023-04-16T17:13:07.890Z,1.40
2023-04-16T17:16:11.277Z,1.35
2023-04-16T17:19:15.351Z,1.25
2023-04-16T17:22:19.944Z,1.83
2023-04-16T17:25:23.162Z,1.75
2023-04-16T17:28:27.023Z,1.10
2023-04-16T17:31:30.230Z,4.22
2023-04-16T17:34:33.414Z,3.75
2023-04-16T17:37:37.977Z,1.70
2023-04-16T17:40:41.248Z,3.85
2023-04-16T17:43:44.627Z,1.77
2023-04-16T17:46:47.794Z,2.05
2023-04-16T17:49:54.018Z,2.10
2023-04-16T17:53:03.461Z,2.17
2023-04-16T17:56:06.698Z,2.85
2023-04-16T17:59:09.855Z,2.30
2023-04-16T18:02:13.052Z,2.58
2023-04-16T18:05:16.475Z,2.60
2023-04-16T18:08:21.019Z,2.80
2023-04-16T18:11:24.331Z,2.70
2023-04-16T18:14:27.530Z,3.70
2023-04-16T18:17:30.894Z,2.65
2023-04-16T18:20:34.422Z,3.45
2023-04-16T18:23:39.072Z,3.67
2023-04-16T18:26:46.098Z,3.90
2023-04-16T18:29:51.347Z,3.40
2023-04-16T18:33:25.371Z,3.70
2023-04-16T18:36:18.152Z,3.58
2023-04-16T18:39:22.748Z,3.50
2023-04-16T18:42:27.791Z,3.17
2023-04-16T18:45:34.110Z,3.10
2023-04-16T18:48:37.711Z,3.15
2023-04-16T18:51:41.896Z,3.38
2023-04-16T18:54:46.506Z,3.30
2023-04-16T18:57:50.034Z,3.60
2023-04-16T19:00:53.947Z,3.40
2023-04-16T19:03:57.475Z,3.75
2023-04-16T19:07:00.967Z,4.30
2023-04-16T19:10:06.823Z,3.95
2023-04-16T19:13:10.131Z,4.00
2023-04-16T19:16:13.497Z,4.60
2023-04-16T19:19:17.872Z,4.80
2023-04-16T19:22:21.055Z,5.07
2023-04-16T19:25:25.786Z,4.47
2023-04-16T19:28:29.092Z,5.05
2023-04-16T19:31:32.509Z,4.88
2023-04-16T19:34:36.061Z,2.35
2023-04-16T19:37:39.385Z,2.47
2023-04-16T19:40:46.691Z,2.25
2023-04-16T19:43:50.055Z,2.03
2023-04-16T19:46:53.306Z,2.17
2023-04-16T19:49:56.570Z,2.05
2023-04-16T19:52:59.867Z,1.85
2023-04-16T19:56:04.576Z,2.60
2023-04-16T19:59:07.963Z,2.33
2023-04-16T20:02:11.366Z,2.20
2023-04-16T20:05:15.097Z,1.98
2023-04-16T20:08:18.340Z,2.10
2023-04-16T20:11:22.875Z,1.50
2023-04-16T20:14:26.124Z,2.22
2023-04-16T20:17:29.382Z,0.20
2023-04-16T20:20:35.622Z,1.55
2023-04-16T20:23:38.745Z,5.85
2023-04-16T20:26:43.542Z,4.25
2023-04-16T20:29:46.746Z,3.80
2023-04-16T20:32:49.896Z,4.25
2023-04-16T20:35:53.017Z,4.25
2023-04-16T20:38:56.148Z,4.55
2023-04-16T20:42:04.128Z,4.10
2023-04-16T20:45:08.880Z,4.18
2023-04-16T20:48:12.454Z,4.60
2023-04-16T20:51:15.826Z,4.47
2023-04-16T20:54:19.015Z,5.00
2023-04-16T20:57:23.538Z,4.15
2023-04-16T21:00:26.995Z,4.50
2023-04-16T21:03:30.357Z,4.65
2023-04-16T21:06:38.249Z,4.50
2023-04-16T21:09:41.384Z,4.90
2023-04-16T21:12:45.868Z,4.95
2023-04-16T21:15:49.201Z,5.00
2023-04-16T21:18:52.378Z,4.95
2023-04-16T21:21:55.987Z,5.28
2023-04-16T21:24:59.159Z,5.43
2023-04-16T21:28:03.593Z,5.45
2023-04-16T21:34:56.861Z,5.88
2023-04-16T21:38:00.189Z,5.30
2023-04-16T21:41:03.375Z,5.60
2023-04-16T21:44:06.627Z,8.23
2023-04-16T21:47:09.798Z,8.98
2023-04-16T21:50:14.755Z,7.07
2023-04-16T21:53:18.070Z,7.10
2023-04-16T21:56:21.422Z,7.05
2023-04-16T21:59:24.683Z,7.13
2023-04-16T22:02:28.648Z,6.68
2023-04-16T22:05:33.192Z,7.15
2023-04-16T22:08:36.296Z,7.20
2023-04-16T22:11:39.453Z,7.38
2023-04-16T22:14:52.183Z,7.63
2023-04-16T22:18:05.517Z,6.78
2023-04-16T22:21:09.974Z,8.02
2023-04-16T22:24:13.228Z,7.00
2023-04-16T22:27:16.791Z,7.63
2023-04-16T22:30:20.053Z,7.10
2023-04-16T22:33:23.277Z,7.53
2023-04-16T22:36:27.978Z,7.53
2023-04-16T22:39:31.538Z,7.78
2023-04-16T22:42:34.787Z,7.28
2023-04-16T22:45:38.294Z,7.57
2023-04-16T22:48:41.557Z,6.90
2023-04-16T22:51:46.129Z,7.90
2023-04-16T22:54:49.491Z,7.95
2023-04-16T22:57:52.652Z,7.60
2023-04-16T23:00:57.436Z,7.35
2023-04-16T23:04:01.258Z,7.80
2023-04-16T23:07:05.833Z,7.50
2023-04-16T23:10:09.699Z,7.15
2023-04-16T23:13:14.265Z,7.93
2023-04-16T23:16:17.412Z,7.20
2023-04-16T23:19:20.553Z,7.93
2023-04-16T23:22:25.123Z,7.63
2023-04-16T23:25:33.797Z,7.28
2023-04-16T23:28:37.000Z,7.88
2023-04-16T23:31:40.290Z,7.78
2023-04-16T23:34:43.724Z,8.48
2023-04-16T23:37:48.240Z,7.43
2023-04-16T23:40:51.528Z,8.02
2023-04-16T23:43:54.909Z,8.35
2023-04-16T23:46:58.223Z,7.80
2023-04-16T23:50:01.415Z,8.15
2023-04-16T23:53:06.092Z,8.52
2023-04-16T23:56:10.974Z,8.45
2023-04-16T23:59:14.334Z,8.13
